Time;durP1;ratioP1;P1;durP2;ratioP2;P2;SDS_P1;SDS_P2;PMS_P1;PMS_P2;Temp;Humidity;BMP_temperature;BMP_pressure;BME280_temperature;BME280_humidity;BME280_pressure;Samples;Min_cycle;Max_cycle;Signal;HPM_P1;HPM_P2
2022/07/18 10:43:29;;;;;;;1.70;1.52;;;26.20;32.20;;;;;;5081800;27;20525;-72
2022/07/18 10:45:56;;;;;;;2.22;1.73;;;26.40;45.90;;;;;;5079931;28;20546;-69
2022/07/18 10:48:34;;;;;;;2.20;1.88;;;26.40;42.80;;;;;;5080675;28;20331;-71
2022/07/18 10:53:19;;;;;;;1.80;1.67;;;;;;;;;;5089518;27;20483;-73
2022/07/18 10:55:47;;;;;;;1.95;1.75;;;;;;;;;;5081728;28;20202;-72
2022/07/18 10:58:13;;;;;;;2.03;1.83;;;;;;;;;;5080522;28;20861;-71
2022/07/18 11:00:42;;;;;;;2.65;1.88;;;;;;;;;;5081075;28;20203;-72
2022/07/18 11:03:10;;;;;;;2.55;2.00;;;;;;;;;;5079328;28;20185;-71
2022/07/18 11:05:39;;;;;;;2.40;1.92;;;;;;;;;;5081883;28;20594;-72
2022/07/18 11:08:14;;;;;;;3.85;2.25;;;;;;;;;;5080088;28;20181;-72
2022/07/18 11:11:01;;;;;;;5.45;2.90;;;;;;;;;;5081598;28;20222;-72
2022/07/18 11:13:31;;;;;;;3.50;2.60;;;;;;;;;;5081250;28;20208;-72
2022/07/18 11:15:57;;;;;;;3.45;2.25;;;;;;;;;;5081949;28;20181;-72
2022/07/18 11:18:24;;;;;;;2.60;2.10;;;;;;;;;;5080386;28;20176;-72
2022/07/18 11:20:50;;;;;;;3.17;2.10;;;;;;;;;;5080909;28;20334;-72
2022/07/18 11:23:20;;;;;;;2.45;2.05;;;;;;;;;;5081037;28;20193;-73
2022/07/18 11:25:47;;;;;;;6.28;5.68;;;;;;;;;;5081656;28;20204;-73
2022/07/18 11:28:13;;;;;;;4.15;3.38;;;;;;;;;;5080149;28;20188;-72
2022/07/18 11:30:40;;;;;;;4.40;3.30;;;;;;;;;;5081102;28;20334;-73
2022/07/18 11:33:06;;;;;;;3.42;2.80;;;;;;;;;;5081684;28;20247;-72
2022/07/18 11:35:32;;;;;;;3.35;2.38;;;;;;;;;;5087064;28;20192;-72
2022/07/18 11:38:04;;;;;;;4.63;2.17;;;;;;;;;;5088749;28;20532;-72
2022/07/18 11:40:30;;;;;;;2.15;1.95;;;;;;;;;;5083502;28;20664;-72
2022/07/18 11:42:57;;;;;;;3.42;2.10;;;;;;;;;;5083289;28;20189;-73
2022/07/18 11:45:23;;;;;;;2.53;2.30;;;;;;;;;;5086382;28;20189;-73
2022/07/18 11:47:50;;;;;;;2.45;2.13;;;;;;;;;;5085734;28;20185;-72
2022/07/18 11:50:17;;;;;;;2.25;2.00;;;;;;;;;;5080793;28;20209;-73
2022/07/18 11:52:43;;;;;;;2.70;2.20;;;;;;;;;;5081337;28;20591;-72
2022/07/18 11:58:09;;;;;;;2.33;2.13;;;;;;;;;;5086660;28;20226;-73
2022/07/18 12:00:36;;;;;;;3.65;2.28;;;;;;;;;;5085701;28;20680;-72
2022/07/18 12:03:02;;;;;;;2.75;1.95;;;;;;;;;;5074336;28;20238;-73
2022/07/18 12:05:38;;;;;;;5.22;2.40;;;;;;;;;;5070813;28;20609;-72
2022/07/18 12:08:29;;;;;;;3.10;1.98;;;;;;;;;;5072405;28;20216;-73
2022/07/18 12:14:25;;;;;;;4.22;2.20;;;;;;;;;;5092663;28;20709;-72
2022/07/18 12:17:22;;;;;;;2.22;1.98;;;;;;;;;;5096552;28;20670;-73
2022/07/18 12:23:07;;;;;;;2.35;2.00;;;;;;;;;;5097415;28;20375;-73
2022/07/18 12:25:52;;;;;;;2.15;1.98;;;;;;;;;;5080971;28;20193;-73
2022/07/18 12:28:21;;;;;;;2.75;2.05;;;;;;;;;;5066216;28;20223;-73
2022/07/18 12:30:47;;;;;;;3.55;1.98;;;;;;;;;;5063767;28;20746;-72
2022/07/18 12:33:13;;;;;;;3.00;1.90;;;;;;;;;;5057867;28;20209;-72
2022/07/18 12:35:40;;;;;;;2.13;1.80;;;;;;;;;;5059979;28;20185;-72
2022/07/18 12:38:08;;;;;;;2.13;1.90;;;;;;;;;;5065068;28;20181;-72
2022/07/18 12:40:40;;;;;;;1.85;1.50;;;;;;;;;;5066214;28;20209;-73
2022/07/18 12:43:08;;;;;;;2.75;1.92;;;;;;;;;;5066005;28;20547;-73
2022/07/18 12:45:34;;;;;;;2.63;1.65;;;;;;;;;;5066820;28;20633;-73
2022/07/18 12:48:00;;;;;;;2.00;1.80;;;;;;;;;;5065849;28;20233;-73
2022/07/18 12:50:26;;;;;;;2.15;1.95;;;;;;;;;;5065714;28;20583;-73
2022/07/18 12:52:52;;;;;;;2.35;1.70;;;;;;;;;;5066256;28;20282;-73
2022/07/18 12:55:19;;;;;;;2.05;1.55;;;;;;;;;;5066656;28;20185;-73
2022/07/18 12:57:46;;;;;;;1.85;1.70;;;;;;;;;;5066011;28;20180;-73
2022/07/18 13:00:12;;;;;;;3.00;1.40;;;;;;;;;;5065587;28;20676;-73
2022/07/18 13:02:38;;;;;;;2.20;1.42;;;;;;;;;;5066181;28;20246;-73
2022/07/18 13:05:04;;;;;;;1.77;1.55;;;;;;;;;;5065837;28;20193;-74
2022/07/18 13:07:30;;;;;;;1.58;1.40;;;;;;;;;;5065079;28;20522;-72
2022/07/18 13:09:56;;;;;;;1.40;1.30;;;;;;;;;;5064304;28;20213;-73
2022/07/18 13:12:22;;;;;;;3.35;1.40;;;;;;;;;;5057825;28;20209;-72
2022/07/18 13:14:48;;;;;;;1.92;1.60;;;;;;;;;;5064430;28;20197;-73
2022/07/18 13:17:14;;;;;;;1.77;1.42;;;;;;;;;;5065414;28;20185;-73
2022/07/18 13:19:40;;;;;;;2.45;1.40;;;;;;;;;;5064816;28;20258;-73
2022/07/18 13:22:07;;;;;;;1.77;1.40;;;;;;;;;;5063992;28;20929;-73
2022/07/18 13:24:33;;;;;;;3.13;1.70;;;;;;;;;;5064650;28;20182;-73
2022/07/18 13:26:59;;;;;;;3.25;1.63;;;;;;;;;;5065399;28;20184;-73
2022/07/18 13:29:25;;;;;;;2.50;1.63;;;;;;;;;;5065069;28;20552;-73
2022/07/18 13:31:51;;;;;;;3.08;1.30;;;;;;;;;;5065518;28;20694;-72
2022/07/18 13:34:17;;;;;;;3.35;1.30;;;;;;;;;;5065671;28;20181;-74
2022/07/18 13:36:43;;;;;;;2.45;1.10;;;;;;;;;;5064607;28;20515;-73
2022/07/18 13:39:09;;;;;;;3.38;1.52;;;;;;;;;;5064935;28;20184;-73
2022/07/18 13:41:35;;;;;;;1.90;1.45;;;;;;;;;;5065821;28;20637;-72
2022/07/18 13:44:01;;;;;;;2.20;1.20;;;;;;;;;;5065585;28;20272;-73
2022/07/18 13:46:27;;;;;;;2.22;1.48;;;;;;;;;;5065546;28;20652;-73
2022/07/18 13:48:53;;;;;;;2.13;1.45;;;;;;;;;;5064838;28;20239;-73
2022/07/18 13:51:19;;;;;;;2.17;1.52;;;;;;;;;;5064535;28;20227;-73
2022/07/18 13:53:45;;;;;;;2.28;1.23;;;;;;;;;;5065415;28;20216;-73
2022/07/18 13:56:12;;;;;;;2.40;1.20;;;;;;;;;;5065352;28;20196;-73
2022/07/18 13:58:38;;;;;;;1.77;1.48;;;;;;;;;;5064011;28;20549;-73
2022/07/18 14:01:04;;;;;;;2.97;1.50;;;;;;;;;;5064625;28;20209;-73
2022/07/18 14:03:30;;;;;;;2.33;1.65;;;;;;;;;;5064672;28;20184;-72
2022/07/18 14:05:56;;;;;;;2.97;1.60;;;;;;;;;;5065357;28;20856;-73
2022/07/18 14:08:22;;;;;;;1.88;1.25;;;;;;;;;;5063933;28;21022;-73
2022/07/18 14:10:48;;;;;;;2.65;1.75;;;;;;;;;;5065003;28;20211;-73
2022/07/18 14:13:14;;;;;;;1.85;1.67;;;;;;;;;;5064509;28;20209;-72
2022/07/18 14:15:40;;;;;;;2.75;1.70;;;;;;;;;;5065058;28;20185;-73
2022/07/18 14:18:06;;;;;;;1.63;1.52;;;;;;;;;;5063497;28;20260;-73
2022/07/18 14:20:32;;;;;;;1.83;1.45;;;;;;;;;;5064482;28;20233;-74
2022/07/18 14:22:58;;;;;;;1.50;1.40;;;;;;;;;;5064998;28;20193;-73
2022/07/18 14:25:24;;;;;;;2.33;1.60;;;;;;;;;;5065033;28;20216;-72
2022/07/18 14:27:50;;;;;;;3.97;1.63;;;;;;;;;;5064391;28;20193;-73
2022/07/18 14:30:17;;;;;;;2.45;1.58;;;;;;;;;;5063615;28;20212;-72
2022/07/18 14:32:43;;;;;;;2.17;1.45;;;;;;;;;;5064103;28;20201;-72
2022/07/18 14:35:10;;;;;;;2.47;1.60;;;;;;;;;;5065107;28;20226;-73
2022/07/18 14:37:36;;;;;;;1.75;1.55;;;;;;;;;;5064242;28;20189;-73
2022/07/18 14:40:03;;;;;;;2.38;1.65;;;;;;;;;;5063682;28;20205;-73
2022/07/18 14:42:29;;;;;;;2.72;1.65;;;;;;;;;;5063222;28;20196;-73
2022/07/18 14:44:55;;;;;;;1.92;1.55;;;;;;;;;;5064731;28;20181;-73
2022/07/18 14:47:21;;;;;;;2.13;1.65;;;;;;;;;;5064359;28;20264;-73
2022/07/18 14:49:48;;;;;;;1.80;1.40;;;;;;;;;;5063744;28;20251;-72
2022/07/18 14:52:14;;;;;;;2.20;1.52;;;;;;;;;;5064026;28;20209;-72
2022/07/18 14:54:40;;;;;;;1.60;1.50;;;;;;;;;;5064393;28;20270;-72
2022/07/18 14:57:06;;;;;;;2.10;1.30;;;;;;;;;;5064062;28;20685;-73
2022/07/18 14:59:32;;;;;;;1.50;1.30;;;;;;;;;;5064196;28;20201;-73
2022/07/18 15:01:58;;;;;;;1.42;1.30;;;;;;;;;;5063149;28;20185;-72
2022/07/18 15:04:25;;;;;;;1.52;1.30;;;;;;;;;;5063650;28;20648;-72
2022/07/18 15:06:51;;;;;;;1.45;1.13;;;;;;;;;;5057398;28;20186;-72
2022/07/18 15:09:17;;;;;;;2.03;1.35;;;;;;;;;;5062252;28;20272;-73
2022/07/18 15:11:43;;;;;;;2.33;1.73;;;;;;;;;;5057843;28;20327;-72
2022/07/18 15:14:10;;;;;;;3.60;1.40;;;;;;;;;;5062657;28;20181;-72
2022/07/18 15:16:36;;;;;;;1.80;1.40;;;;;;;;;;5062430;28;20242;-72
2022/07/18 15:19:02;;;;;;;1.50;1.20;;;;;;;;;;5062751;28;20185;-72
2022/07/18 15:21:28;;;;;;;1.80;0.98;;;;;;;;;;5062726;28;20276;-73
2022/07/18 15:23:54;;;;;;;1.52;1.27;;;;;;;;;;5066578;28;20203;-73
2022/07/18 15:26:20;;;;;;;1.77;1.40;;;;;;;;;;5070295;28;20649;-72
2022/07/18 15:28:49;;;;;;;2.45;1.30;;;;;;;;;;5070511;28;20181;-72
2022/07/18 15:31:15;;;;;;;1.85;1.30;;;;;;;;;;5071385;28;20201;-72
2022/07/18 15:33:41;;;;;;;1.80;1.33;;;;;;;;;;5071860;28;20659;-72
2022/07/18 15:36:09;;;;;;;1.45;1.30;;;;;;;;;;5072912;28;20184;-73
2022/07/18 15:38:35;;;;;;;2.20;1.23;;;;;;;;;;5072438;28;20261;-72
2022/07/18 15:41:01;;;;;;;2.25;1.20;;;;;;;;;;5075831;28;20202;-72
2022/07/18 15:43:33;;;;;;;1.30;1.20;;;;;;;;;;5076007;28;20694;-72
2022/07/18 15:45:59;;;;;;;1.35;1.20;;;;;;;;;;5074783;28;20682;-73
2022/07/18 15:48:25;;;;;;;5.13;1.30;;;;;;;;;;5074988;28;20656;-73
2022/07/18 15:50:54;;;;;;;1.50;1.30;;;;;;;;;;5077078;28;20404;-72
2022/07/18 15:53:20;;;;;;;4.15;1.30;;;;;;;;;;5076797;28;20571;-72
2022/07/18 15:55:46;;;;;;;1.25;1.15;;;;;;;;;;5076667;28;20189;-72
2022/07/18 15:58:12;;;;;;;2.03;1.30;;;;;;;;;;5068020;28;20243;-73
2022/07/18 16:00:45;;;;;;;2.50;1.40;;;;;;;;;;5074342;28;20202;-73
2022/07/18 16:03:12;;;;;;;1.23;1.13;;;;;;;;;;5076627;28;20260;-73
2022/07/18 16:05:38;;;;;;;2.45;1.20;;;;;;;;;;5082584;28;20185;-72
2022/07/18 16:08:05;;;;;;;1.48;1.33;;;;;;;;;;5075411;28;20261;-72
2022/07/18 16:10:31;;;;;;;3.70;1.58;;;;;;;;;;5074530;28;20201;-72
2022/07/18 16:12:57;;;;;;;1.50;1.17;;;;;;;;;;5077286;28;20275;-73
2022/07/18 16:15:30;;;;;;;2.63;1.40;;;;;;;;;;5075197;28;20238;-72
2022/07/18 16:17:56;;;;;;;1.25;1.15;;;;;;;;;;5074318;28;20590;-73
2022/07/18 16:20:22;;;;;;;2.17;1.50;;;;;;;;;;5072832;28;20235;-73
2022/07/18 16:25:43;;;;;;;1.70;1.50;;;;;;;;;;5071455;28;20276;-72
2022/07/18 16:28:09;;;;;;;1.77;1.25;;;;;;;;;;5073899;28;20676;-73
2022/07/18 16:30:46;;;;;;;1.95;1.42;;;;;;;;;;5073952;28;20197;-73
2022/07/18 16:33:12;;;;;;;1.50;1.30;;;;;;;;;;5074042;28;20402;-72
2022/07/18 16:35:38;;;;;;;1.60;1.50;;;;;;;;;;5075382;28;20188;-72
2022/07/18 16:38:11;;;;;;;2.20;1.30;;;;;;;;;;5074300;28;20178;-73
2022/07/18 16:40:37;;;;;;;1.42;1.33;;;;;;;;;;5075114;28;20214;-72
2022/07/18 16:43:04;;;;;;;2.47;1.40;;;;;;;;;;5073983;28;20182;-73
2022/07/18 16:45:44;;;;;;;2.65;1.52;;;;;;;;;;5073297;28;20205;-72
2022/07/18 16:48:10;;;;;;;3.40;1.63;;;;;;;;;;5073161;28;20261;-72
2022/07/18 16:50:36;;;;;;;1.50;1.20;;;;;;;;;;5073028;28;20201;-72
2022/07/18 16:53:02;;;;;;;2.45;1.55;;;;;;;;;;5072465;28;20669;-73
2022/07/18 16:55:30;;;;;;;2.67;1.65;;;;;;;;;;5073533;28;20181;-73
2022/07/18 16:57:57;;;;;;;1.95;1.30;;;;;;;;;;5072644;28;20181;-73
2022/07/18 17:00:23;;;;;;;2.83;1.40;;;;;;;;;;5072069;28;20214;-72
2022/07/18 17:02:50;;;;;;;1.73;1.48;;;;;;;;;;5073362;28;20652;-72
2022/07/18 17:05:17;;;;;;;1.63;1.25;;;;;;;;;;5073640;28;20177;-72
2022/07/18 17:07:43;;;;;;;1.40;1.30;;;;;;;;;;5072383;28;20230;-73
2022/07/18 17:10:10;;;;;;;1.77;1.48;;;;;;;;;;5066247;28;20201;-72
2022/07/18 17:12:36;;;;;;;2.17;1.58;;;;;;;;;;5065569;28;20214;-72
2022/07/18 17:15:03;;;;;;;1.75;1.40;;;;;;;;;;5065795;28;20997;-72
2022/07/18 17:17:29;;;;;;;1.88;1.45;;;;;;;;;;5065638;28;20197;-72
2022/07/18 17:19:56;;;;;;;1.45;1.27;;;;;;;;;;5064987;28;20602;-71
2022/07/18 17:22:25;;;;;;;2.33;1.60;;;;;;;;;;5065569;28;20193;-74
2022/07/18 17:24:52;;;;;;;1.77;1.30;;;;;;;;;;5065547;28;20547;-73
2022/07/18 17:27:18;;;;;;;2.40;1.38;;;;;;;;;;5065150;28;20181;-73
2022/07/18 17:29:45;;;;;;;2.42;1.20;;;;;;;;;;5063457;28;20210;-73
2022/07/18 17:32:11;;;;;;;2.28;1.27;;;;;;;;;;5065324;28;20660;-72
2022/07/18 17:34:38;;;;;;;1.92;1.48;;;;;;;;;;5065330;28;20193;-73
2022/07/18 17:37:04;;;;;;;1.70;1.50;;;;;;;;;;5065687;28;20181;-73
2022/07/18 17:39:31;;;;;;;5.50;1.83;;;;;;;;;;5064908;28;20210;-74
2022/07/18 17:41:57;;;;;;;2.83;1.60;;;;;;;;;;5065659;28;20453;-73
2022/07/18 17:44:26;;;;;;;1.70;1.38;;;;;;;;;;5065608;28;20303;-74
2022/07/18 17:46:53;;;;;;;2.38;1.50;;;;;;;;;;5065454;28;20185;-73
2022/07/18 17:49:19;;;;;;;2.33;1.40;;;;;;;;;;5063987;28;20186;-74
2022/07/18 17:51:46;;;;;;;3.25;1.50;;;;;;;;;;5064831;28;20205;-73
2022/07/18 17:54:13;;;;;;;1.90;1.50;;;;;;;;;;5065444;28;20630;-73
2022/07/18 17:56:39;;;;;;;1.75;1.08;;;;;;;;;;5065159;28;20188;-73
2022/07/18 17:59:06;;;;;;;1.40;1.23;;;;;;;;;;5064048;28;20177;-73
2022/07/18 18:01:32;;;;;;;1.80;1.20;;;;;;;;;;5064620;28;20620;-72
2022/07/18 18:03:58;;;;;;;1.48;1.38;;;;;;;;;;5064573;28;20189;-70
2022/07/18 18:06:24;;;;;;;2.35;1.25;;;;;;;;;;5065076;28;20220;-72
2022/07/18 18:08:50;;;;;;;1.85;1.40;;;;;;;;;;5064148;28;20774;-73
2022/07/18 18:11:16;;;;;;;1.25;1.15;;;;;;;;;;5064460;28;20205;-73
2022/07/18 18:13:42;;;;;;;1.60;1.15;;;;;;;;;;5064592;28;20196;-73
2022/07/18 18:16:08;;;;;;;1.58;1.20;;;;;;;;;;5064978;28;20264;-74
2022/07/18 18:18:34;;;;;;;2.15;1.38;;;;;;;;;;5064068;28;20185;-72
2022/07/18 18:21:01;;;;;;;2.45;1.88;;;;;;;;;;5064790;28;20205;-72
2022/07/18 18:23:28;;;;;;;1.23;1.05;;;;;;;;;;5064689;28;20192;-72
2022/07/18 18:25:54;;;;;;;1.45;1.23;;;;;;;;;;5064921;28;20239;-74
2022/07/18 18:28:23;;;;;;;1.90;1.25;;;;;;;;;;5063819;28;20189;-74
2022/07/18 18:30:50;;;;;;;2.53;1.50;;;;;;;;;;5064743;28;20247;-74
2022/07/18 18:33:16;;;;;;;2.17;1.33;;;;;;;;;;5064321;28;20212;-73
2022/07/18 18:35:43;;;;;;;2.55;1.20;;;;;;;;;;5064796;28;20196;-73
2022/07/18 18:38:10;;;;;;;17.20;3.25;;;;;;;;;;5063849;28;20250;-73
2022/07/18 18:40:37;;;;;;;24.58;3.10;;;;;;;;;;5060154;28;20209;-72
2022/07/18 18:43:03;;;;;;;8.88;2.10;;;;;;;;;;5064223;28;20218;-72
2022/07/18 18:45:30;;;;;;;9.68;2.38;;;;;;;;;;5065029;28;20261;-71
2022/07/18 18:47:56;;;;;;;13.32;2.22;;;;;;;;;;5064304;28;20177;-72
2022/07/18 18:50:22;;;;;;;11.18;2.00;;;;;;;;;;5060875;28;20711;-73
2022/07/18 18:52:48;;;;;;;4.18;1.40;;;;;;;;;;5062932;28;20266;-73
2022/07/18 18:55:16;;;;;;;5.13;2.00;;;;;;;;;;5061744;28;20594;-74
2022/07/18 18:57:43;;;;;;;6.22;1.58;;;;;;;;;;5063506;28;20244;-74
2022/07/18 19:00:16;;;;;;;2.70;1.40;;;;;;;;;;5062618;28;20216;-74
2022/07/18 19:02:42;;;;;;;1.95;1.30;;;;;;;;;;5057979;28;20193;-74
2022/07/18 19:05:09;;;;;;;3.42;1.42;;;;;;;;;;5064516;28;20193;-73
2022/07/18 19:07:35;;;;;;;3.72;1.10;;;;;;;;;;5062419;28;20186;-72
2022/07/18 19:10:01;;;;;;;2.92;1.70;;;;;;;;;;5062406;28;20216;-73
2022/07/18 19:12:27;;;;;;;4.65;1.52;;;;;;;;;;5063779;28;20366;-73
2022/07/18 19:14:53;;;;;;;3.90;1.33;;;;;;;;;;5067610;28;20272;-71
2022/07/18 19:17:19;;;;;;;1.58;1.13;;;;;;;;;;5067945;28;20188;-73
2022/07/18 19:19:45;;;;;;;4.05;1.77;;;;;;;;;;5065739;28;20231;-74
2022/07/18 19:22:11;;;;;;;4.45;1.30;;;;;;;;;;5066531;28;20311;-73
2022/07/18 19:24:37;;;;;;;6.97;1.52;;;;;;;;;;5066894;28;20272;-73
2022/07/18 19:27:03;;;;;;;4.35;1.75;;;;;;;;;;5058644;28;20181;-73
2022/07/18 19:29:29;;;;;;;3.40;1.40;;;;;;;;;;5065919;28;20578;-74
2022/07/18 19:31:55;;;;;;;3.05;1.30;;;;;;;;;;5067654;28;20274;-72
2022/07/18 19:34:21;;;;;;;3.70;1.67;;;;;;;;;;5068146;28;20185;-72
2022/07/18 19:36:47;;;;;;;3.20;1.23;;;;;;;;;;5067632;28;21134;-72
2022/07/18 19:39:13;;;;;;;1.42;1.33;;;;;;;;;;5067346;28;20243;-72
2022/07/18 19:41:41;;;;;;;2.22;1.40;;;;;;;;;;5067699;28;20247;-72
2022/07/18 19:44:07;;;;;;;3.90;1.48;;;;;;;;;;5067367;28;20180;-72
2022/07/18 19:46:33;;;;;;;2.00;1.30;;;;;;;;;;5066762;28;20186;-72
2022/07/18 19:48:59;;;;;;;3.45;1.50;;;;;;;;;;5065532;28;20648;-72
2022/07/18 19:51:25;;;;;;;1.63;1.35;;;;;;;;;;5067051;28;20893;-72
2022/07/18 19:53:51;;;;;;;2.08;1.38;;;;;;;;;;5066744;28;20848;-72
2022/07/18 19:56:17;;;;;;;1.55;1.25;;;;;;;;;;5067051;28;20186;-74
2022/07/18 19:58:43;;;;;;;2.60;1.38;;;;;;;;;;5065841;28;20192;-72
2022/07/18 20:01:09;;;;;;;2.10;1.45;;;;;;;;;;5065847;28;20617;-72
2022/07/18 20:03:35;;;;;;;2.63;1.35;;;;;;;;;;5066931;28;20196;-72
2022/07/18 20:06:01;;;;;;;2.75;1.40;;;;;;;;;;5066679;28;20181;-72
2022/07/18 20:08:27;;;;;;;2.58;0.95;;;;;;;;;;5066158;28;20254;-72
2022/07/18 20:10:53;;;;;;;1.63;1.10;;;;;;;;;;5066533;28;20209;-72
2022/07/18 20:13:19;;;;;;;1.63;1.20;;;;;;;;;;5065758;28;20205;-71
2022/07/18 20:15:45;;;;;;;3.65;1.38;;;;;;;;;;5065320;28;20240;-73
2022/07/18 20:18:11;;;;;;;2.15;1.30;;;;;;;;;;5065803;28;20222;-73
2022/07/18 20:20:37;;;;;;;4.03;1.35;;;;;;;;;;5066677;28;20198;-72
2022/07/18 20:23:05;;;;;;;3.80;1.40;;;;;;;;;;5067029;28;20196;-72
2022/07/18 20:25:31;;;;;;;4.13;1.42;;;;;;;;;;5065615;28;20192;-72
2022/07/18 20:27:58;;;;;;;1.70;1.48;;;;;;;;;;5066196;28;20656;-72
2022/07/18 20:30:24;;;;;;;2.85;1.38;;;;;;;;;;5065834;28;20217;-72
2022/07/18 20:32:50;;;;;;;2.45;1.27;;;;;;;;;;5065944;28;20578;-72
2022/07/18 20:35:16;;;;;;;3.03;1.40;;;;;;;;;;5065844;28;20209;-73
2022/07/18 20:37:43;;;;;;;3.03;1.13;;;;;;;;;;5066368;28;20177;-72
2022/07/18 20:40:10;;;;;;;3.72;1.48;;;;;;;;;;5065891;28;20232;-72
2022/07/18 20:42:36;;;;;;;2.67;1.55;;;;;;;;;;5066119;28;20594;-72
2022/07/18 20:45:03;;;;;;;2.65;1.50;;;;;;;;;;5066554;28;20276;-73
2022/07/18 20:47:29;;;;;;;3.28;1.45;;;;;;;;;;5056128;28;20272;-72
2022/07/18 20:49:56;;;;;;;2.65;1.60;;;;;;;;;;5064949;28;20210;-73
2022/07/18 20:52:21;;;;;;;3.88;1.60;;;;;;;;;;5065149;28;20591;-73
2022/07/18 20:54:48;;;;;;;2.03;1.40;;;;;;;;;;5065288;28;20190;-72
2022/07/18 20:57:15;;;;;;;2.92;1.50;;;;;;;;;;5065274;28;20598;-72
2022/07/18 20:59:42;;;;;;;2.42;1.52;;;;;;;;;;5065279;28;20197;-73
2022/07/18 21:02:08;;;;;;;2.03;1.40;;;;;;;;;;5063439;28;20177;-73
2022/07/18 21:04:34;;;;;;;2.40;1.50;;;;;;;;;;5064231;28;20709;-72
2022/07/18 21:07:00;;;;;;;3.38;1.67;;;;;;;;;;5065207;28;20239;-72
2022/07/18 21:09:26;;;;;;;2.22;1.40;;;;;;;;;;5064636;28;20205;-72
2022/07/18 21:11:52;;;;;;;2.97;1.50;;;;;;;;;;5065624;28;20201;-72
2022/07/18 21:17:02;;;;;;;2.45;1.80;;;;;;;;;;5065972;28;20201;-72
2022/07/18 21:19:28;;;;;;;4.38;1.63;;;;;;;;;;5064388;28;20190;-72
2022/07/18 21:21:54;;;;;;;6.60;1.80;;;;;;;;;;5065134;28;20186;-72
2022/07/18 21:24:20;;;;;;;2.97;1.40;;;;;;;;;;5066117;28;20234;-72
2022/07/18 21:26:46;;;;;;;2.15;1.52;;;;;;;;;;5065321;28;20577;-72
2022/07/18 21:29:12;;;;;;;2.78;1.55;;;;;;;;;;5064022;28;20197;-71
2022/07/18 21:31:38;;;;;;;2.47;1.60;;;;;;;;;;5065152;28;20729;-72
2022/07/18 21:34:04;;;;;;;3.95;1.60;;;;;;;;;;5065424;28;20665;-72
2022/07/18 21:36:31;;;;;;;3.45;1.50;;;;;;;;;;5064057;28;20178;-72
2022/07/18 21:38:57;;;;;;;1.90;1.50;;;;;;;;;;5062974;28;20533;-72
2022/07/18 21:41:23;;;;;;;4.07;1.80;;;;;;;;;;5064750;28;20201;-72
2022/07/18 21:43:49;;;;;;;2.60;1.70;;;;;;;;;;5064711;28;20231;-72
2022/07/18 21:46:15;;;;;;;1.67;1.48;;;;;;;;;;5065332;28;20182;-72
2022/07/18 21:48:41;;;;;;;3.58;1.50;;;;;;;;;;5063074;28;20190;-72
2022/07/18 21:51:07;;;;;;;5.30;1.80;;;;;;;;;;5065289;28;20208;-72
2022/07/18 21:53:33;;;;;;;3.72;1.70;;;;;;;;;;5063133;28;20644;-72
2022/07/18 21:55:59;;;;;;;2.67;1.77;;;;;;;;;;5064229;28;20583;-73
2022/07/18 21:58:25;;;;;;;2.53;1.40;;;;;;;;;;5063733;28;20273;-73
2022/07/18 22:00:51;;;;;;;2.75;1.63;;;;;;;;;;5064978;28;20680;-72
2022/07/18 22:03:17;;;;;;;2.63;1.70;;;;;;;;;;5064472;28;20185;-73
2022/07/18 22:05:43;;;;;;;3.17;1.80;;;;;;;;;;5065002;28;20774;-73
2022/07/18 22:08:09;;;;;;;4.03;2.03;;;;;;;;;;5063824;28;20341;-72
2022/07/18 22:10:35;;;;;;;3.55;1.88;;;;;;;;;;5064300;28;20303;-72
2022/07/18 22:13:01;;;;;;;5.32;2.45;;;;;;;;;;5063049;28;20208;-72
2022/07/18 22:15:27;;;;;;;5.53;2.50;;;;;;;;;;5064367;28;20185;-72
2022/07/18 22:17:53;;;;;;;5.07;2.15;;;;;;;;;;5064788;28;20178;-73
2022/07/18 22:20:21;;;;;;;4.85;2.25;;;;;;;;;;5063500;28;20201;-72
2022/07/18 22:22:48;;;;;;;6.05;1.98;;;;;;;;;;5064491;28;20551;-73
2022/07/18 22:25:14;;;;;;;2.97;1.95;;;;;;;;;;5063993;28;20228;-73
2022/07/18 22:27:40;;;;;;;3.67;1.73;;;;;;;;;;5064930;28;20213;-72
2022/07/18 22:30:08;;;;;;;3.67;1.75;;;;;;;;;;5061675;28;20201;-72
2022/07/18 22:32:34;;;;;;;4.25;1.95;;;;;;;;;;5064038;28;20216;-73
2022/07/18 22:35:00;;;;;;;1.90;1.70;;;;;;;;;;5063515;28;20624;-72
2022/07/18 22:37:25;;;;;;;3.42;2.10;;;;;;;;;;5063354;28;20188;-72
2022/07/18 22:39:51;;;;;;;3.53;1.88;;;;;;;;;;5063328;28;20209;-72
2022/07/18 22:42:17;;;;;;;3.75;1.70;;;;;;;;;;5063014;28;20192;-72
2022/07/18 22:44:43;;;;;;;6.30;2.20;;;;;;;;;;5063081;28;20190;-73
2022/07/18 22:47:10;;;;;;;5.25;1.90;;;;;;;;;;5063687;28;20193;-72
2022/07/18 22:49:36;;;;;;;3.97;2.25;;;;;;;;;;5062896;28;20764;-72
2022/07/18 22:52:02;;;;;;;1.50;1.23;;;;;;;;;;5064180;28;20216;-72
2022/07/18 22:54:28;;;;;;;2.03;1.58;;;;;;;;;;5063667;28;20208;-72
2022/07/18 22:56:54;;;;;;;2.42;1.77;;;;;;;;;;5063779;28;20213;-72
2022/07/18 22:59:20;;;;;;;1.77;1.45;;;;;;;;;;5062719;28;20177;-72
2022/07/18 23:01:46;;;;;;;2.38;1.75;;;;;;;;;;5064424;28;20743;-73
2022/07/18 23:04:12;;;;;;;3.05;1.40;;;;;;;;;;5063924;28;20276;-72
2022/07/18 23:06:38;;;;;;;3.20;1.73;;;;;;;;;;5061236;28;20476;-71
2022/07/18 23:09:04;;;;;;;3.33;1.50;;;;;;;;;;5062906;28;20178;-72
2022/07/18 23:11:30;;;;;;;5.15;2.00;;;;;;;;;;5063251;28;20274;-72
2022/07/18 23:13:56;;;;;;;2.63;1.58;;;;;;;;;;5063636;28;20640;-72
2022/07/18 23:16:22;;;;;;;5.85;1.85;;;;;;;;;;5063837;28;20189;-72
2022/07/18 23:18:48;;;;;;;4.15;1.75;;;;;;;;;;5062741;28;20203;-72
2022/07/18 23:21:14;;;;;;;4.07;1.73;;;;;;;;;;5063945;28;20573;-71
2022/07/18 23:23:40;;;;;;;2.38;2.10;;;;;;;;;;5063412;28;20213;-71
2022/07/18 23:26:06;;;;;;;5.35;1.70;;;;;;;;;;5064038;28;20220;-72
2022/07/18 23:28:32;;;;;;;2.45;1.40;;;;;;;;;;5062567;28;20231;-72
2022/07/18 23:30:58;;;;;;;2.90;1.75;;;;;;;;;;5064046;28;20206;-71
2022/07/18 23:33:24;;;;;;;2.42;1.73;;;;;;;;;;5062113;28;20228;-71
2022/07/18 23:35:50;;;;;;;3.92;1.85;;;;;;;;;;5062779;28;20192;-72
2022/07/18 23:38:16;;;;;;;4.18;1.42;;;;;;;;;;5062723;28;20177;-71
2022/07/18 23:40:42;;;;;;;2.45;1.55;;;;;;;;;;5062141;28;20691;-72
2022/07/18 23:43:08;;;;;;;2.83;1.70;;;;;;;;;;5063375;28;20898;-72
2022/07/18 23:45:33;;;;;;;1.98;1.77;;;;;;;;;;5063430;28;20189;-71
2022/07/18 23:47:59;;;;;;;3.70;1.92;;;;;;;;;;5063183;28;20189;-72
2022/07/18 23:50:26;;;;;;;2.22;1.52;;;;;;;;;;5062722;28;20205;-71
2022/07/18 23:52:52;;;;;;;1.88;1.55;;;;;;;;;;5063319;28;20271;-72
2022/07/18 23:55:18;;;;;;;2.55;1.60;;;;;;;;;;5063313;28;20197;-72
2022/07/18 23:57:44;;;;;;;2.33;1.75;;;;;;;;;;5063268;28;20248;-71
